PWSweather.com
Personal Weather Stations
Station Observations
ERMELO
Centre, ErmeloNL

CentreErmeloNL

Lat: 52.2986655, Lon: 5.6296194

Elevation: 41

Station Type: Oregon WMR200

www.meteoermelo.nl

High Low Average
Temperature 44.6°F7.0°C 32.5°F0.3°C 40.0°F4.4°C
Dew Point 37.4°F3.0°C 23.2°F-4.9°C 29.9°F-1.2°C
Winds 9.8 mph 15.8 kmh 1.5 mph 2.4 kmh 5.0 mph WNW8.0 kmh WNW
Wind Gusts 22.6 mph36.4 kmh 2.7 mph4.3 kmh 10.0 mph16.1 kmh
Humidity 86% 50% 68%
Pressure 30.12 in1020.0 mb 29.65 in1004.1 mb -
Precipitation 0.00 in0.0 mm - -
Hour Temp Dew Point Humidity Winds Wind Gusts Pressure Precip Precip Rate Daily Precip Total
12:00 AM 43.3°F6.3°C 32.0°F0.0°C 64% 9.8 mph NW15.8 kmh NW 22.6 mph36.4 kmh 29.65 in1004.1 mb 0.00 in0.0 mm 0.00 in0.0 mm 0.00 in0.0 mm
12:15 AM 43.7°F6.5°C 35.6°F2.0°C 73% 8.8 mph NW14.2 kmh NW 16.8 mph27.0 kmh 29.68 in1005.1 mb 0.00 in0.0 mm 0.00 in0.0 mm 0.00 in0.0 mm
12:30 AM 44.1°F6.7°C 35.6°F2.0°C 72% 9.7 mph WNW15.6 kmh WNW 15.2 mph24.5 kmh 29.68 in1005.1 mb 0.00 in0.0 mm 0.00 in0.0 mm 0.00 in0.0 mm
12:45 AM 44.4°F6.9°C 34.5°F1.4°C 68% 8.9 mph WNW14.3 kmh WNW 18.8 mph30.3 kmh 29.68 in1005.1 mb 0.00 in0.0 mm 0.00 in0.0 mm 0.00 in0.0 mm
01:00 AM 44.4°F6.9°C 33.8°F1.0°C 66% 6.9 mph NW11.1 kmh NW 13.2 mph21.2 kmh 29.68 in1005.1 mb 0.00 in0.0 mm 0.00 in0.0 mm 0.00 in0.0 mm
01:15 AM 44.4°F6.9°C 33.0°F0.6°C 64% 9.2 mph WNW14.8 kmh WNW 14.5 mph23.3 kmh 29.68 in1005.1 mb 0.00 in0.0 mm 0.00 in0.0 mm 0.00 in0.0 mm
01:30 AM 44.6°F7.0°C 32.8°F0.4°C 63% 9.2 mph NW14.8 kmh NW 17.0 mph27.4 kmh 29.71 in1006.1 mb 0.00 in0.0 mm 0.00 in0.0 mm 0.00 in0.0 mm
01:45 AM 44.6°F7.0°C 33.6°F0.9°C 65% 6.8 mph WNW10.9 kmh WNW 12.1 mph19.5 kmh 29.71 in1006.1 mb 0.00 in0.0 mm 0.00 in0.0 mm 0.00 in0.0 mm
02:00 AM 44.6°F7.0°C 33.9°F1.1°C 66% 8.4 mph NW13.5 kmh NW 15.9 mph25.6 kmh 29.71 in1006.1 mb 0.00 in0.0 mm 0.00 in0.0 mm 0.00 in0.0 mm
02:15 AM 43.9°F6.6°C 30.5°F-0.8°C 59% 7.6 mph NW12.2 kmh NW 13.2 mph21.2 kmh 29.68 in1005.1 mb 0.00 in0.0 mm 0.00 in0.0 mm 0.00 in0.0 mm
02:30 AM 43.5°F6.4°C 30.5°F-0.8°C 60% 7.1 mph NW11.4 kmh NW 13.9 mph22.4 kmh 29.71 in1006.1 mb 0.00 in0.0 mm 0.00 in0.0 mm 0.00 in0.0 mm
02:45 AM 43.5°F6.4°C 30.5°F-0.8°C 60% 6.3 mph WNW10.1 kmh WNW 13.4 mph21.6 kmh 29.71 in1006.1 mb 0.00 in0.0 mm 0.00 in0.0 mm 0.00 in0.0 mm
03:00 AM 43.0°F6.1°C 32.4°F0.2°C 66% 9.2 mph WNW14.8 kmh WNW 17.7 mph28.5 kmh 29.74 in1007.1 mb 0.00 in0.0 mm 0.00 in0.0 mm 0.00 in0.0 mm
03:15 AM 42.8°F6.0°C 34.4°F1.3°C 72% 7.2 mph NW11.6 kmh NW 12.3 mph19.8 kmh 29.74 in1007.1 mb 0.00 in0.0 mm 0.00 in0.0 mm 0.00 in0.0 mm
03:30 AM 42.8°F6.0°C 34.7°F1.5°C 73% 7.9 mph NW12.7 kmh NW 15.4 mph24.8 kmh 29.74 in1007.1 mb 0.00 in0.0 mm 0.00 in0.0 mm 0.00 in0.0 mm
03:45 AM 42.8°F6.0°C 34.4°F1.3°C 72% 5.7 mph NW9.2 kmh NW 10.3 mph16.6 kmh 29.74 in1007.1 mb 0.00 in0.0 mm 0.00 in0.0 mm 0.00 in0.0 mm
04:00 AM 43.0°F6.1°C 34.2°F1.2°C 71% 6.1 mph NW9.8 kmh NW 10.7 mph17.2 kmh 29.77 in1008.1 mb 0.00 in0.0 mm 0.00 in0.0 mm 0.00 in0.0 mm
04:15 AM 43.0°F6.1°C 34.6°F1.4°C 72% 8.1 mph NW13.0 kmh NW 13.2 mph21.2 kmh 29.77 in1008.1 mb 0.00 in0.0 mm 0.00 in0.0 mm 0.00 in0.0 mm
04:30 AM 43.2°F6.2°C 35.1°F1.7°C 73% 6.1 mph NW9.8 kmh NW 10.7 mph17.2 kmh 29.77 in1008.1 mb 0.00 in0.0 mm 0.00 in0.0 mm 0.00 in0.0 mm
04:45 AM 43.0°F6.1°C 35.3°F1.8°C 74% 4.7 mph NW7.6 kmh NW 7.8 mph12.6 kmh 29.77 in1008.1 mb 0.00 in0.0 mm 0.00 in0.0 mm 0.00 in0.0 mm
05:00 AM 43.0°F6.1°C 35.3°F1.8°C 74% 4.4 mph NW7.1 kmh NW 9.4 mph15.1 kmh 29.77 in1008.1 mb 0.00 in0.0 mm 0.00 in0.0 mm 0.00 in0.0 mm
05:15 AM 43.0°F6.1°C 35.3°F1.8°C 74% 3.9 mph NW6.3 kmh NW 7.6 mph12.2 kmh 29.77 in1008.1 mb 0.00 in0.0 mm 0.00 in0.0 mm 0.00 in0.0 mm
05:30 AM 42.6°F5.9°C 35.9°F2.2°C 77% 5.0 mph NW8.0 kmh NW 8.1 mph13.0 kmh 29.77 in1008.1 mb 0.00 in0.0 mm 0.00 in0.0 mm 0.00 in0.0 mm
05:45 AM 42.3°F5.7°C 35.9°F2.2°C 78% 3.4 mph NW5.5 kmh NW 5.8 mph9.3 kmh 29.80 in1009.1 mb 0.00 in0.0 mm 0.00 in0.0 mm 0.00 in0.0 mm
06:00 AM 42.1°F5.6°C 36.0°F2.2°C 79% 2.8 mph NW4.5 kmh NW 5.8 mph9.3 kmh 29.80 in1009.1 mb 0.00 in0.0 mm 0.00 in0.0 mm 0.00 in0.0 mm
06:15 AM 42.1°F5.6°C 36.7°F2.6°C 81% 2.5 mph NW4.0 kmh NW 3.8 mph6.1 kmh 29.80 in1009.1 mb 0.00 in0.0 mm 0.00 in0.0 mm 0.00 in0.0 mm
06:30 AM 42.1°F5.6°C 36.7°F2.6°C 81% 2.0 mph NW3.2 kmh NW 4.7 mph7.6 kmh 29.83 in1010.2 mb 0.00 in0.0 mm 0.00 in0.0 mm 0.00 in0.0 mm
06:45 AM 41.9°F5.5°C 37.4°F3.0°C 84% 4.2 mph N6.8 kmh N 6.9 mph11.1 kmh 29.86 in1011.2 mb 0.00 in0.0 mm 0.00 in0.0 mm 0.00 in0.0 mm
07:00 AM 41.4°F5.2°C 37.2°F2.9°C 85% 5.9 mph N9.5 kmh N 10.5 mph16.9 kmh 29.83 in1010.2 mb 0.00 in0.0 mm 0.00 in0.0 mm 0.00 in0.0 mm
07:15 AM 40.8°F4.9°C 37.0°F2.8°C 86% 4.0 mph N6.4 kmh N 7.2 mph11.6 kmh 29.83 in1010.2 mb 0.00 in0.0 mm 0.00 in0.0 mm 0.00 in0.0 mm
07:30 AM 40.5°F4.7°C 36.3°F2.4°C 85% 5.1 mph NNW8.2 kmh NNW 9.8 mph15.8 kmh 29.86 in1011.2 mb 0.00 in0.0 mm 0.00 in0.0 mm 0.00 in0.0 mm
07:45 AM 39.9°F4.4°C 35.8°F2.1°C 85% 2.7 mph NW4.3 kmh NW 5.4 mph8.7 kmh 29.86 in1011.2 mb 0.00 in0.0 mm 0.00 in0.0 mm 0.00 in0.0 mm
08:00 AM 39.9°F4.4°C 35.8°F2.1°C 85% 3.2 mph NW5.1 kmh NW 5.6 mph9.0 kmh 29.86 in1011.2 mb 0.00 in0.0 mm 0.00 in0.0 mm 0.00 in0.0 mm
08:15 AM 39.6°F4.2°C 34.2°F1.2°C 81% 5.8 mph NNW9.3 kmh NNW 14.1 mph22.7 kmh 29.86 in1011.2 mb 0.00 in0.0 mm 0.00 in0.0 mm 0.00 in0.0 mm
08:30 AM 39.2°F4.0°C 33.2°F0.7°C 79% 4.6 mph NW7.4 kmh NW 8.5 mph13.7 kmh 29.89 in1012.2 mb 0.00 in0.0 mm 0.00 in0.0 mm 0.00 in0.0 mm
08:45 AM 38.8°F3.8°C 32.9°F0.5°C 79% 3.7 mph NW6.0 kmh NW 8.5 mph13.7 kmh 29.89 in1012.2 mb 0.00 in0.0 mm 0.00 in0.0 mm 0.00 in0.0 mm
09:00 AM 38.8°F3.8°C 32.9°F0.5°C 79% 3.5 mph NW5.6 kmh NW 6.0 mph9.7 kmh 29.86 in1011.2 mb 0.00 in0.0 mm 0.00 in0.0 mm 0.00 in0.0 mm
09:15 AM 39.2°F4.0°C 33.5°F0.8°C 80% 2.7 mph WNW4.3 kmh WNW 4.3 mph6.9 kmh 29.89 in1012.2 mb 0.00 in0.0 mm 0.00 in0.0 mm 0.00 in0.0 mm
09:30 AM 39.6°F4.2°C 34.5°F1.4°C 82% 4.7 mph NNW7.6 kmh NNW 10.7 mph17.2 kmh 29.92 in1013.2 mb 0.00 in0.0 mm 0.00 in0.0 mm 0.00 in0.0 mm
09:45 AM 39.0°F3.9°C 33.7°F0.9°C 81% 5.8 mph NNW9.3 kmh NNW 11.0 mph17.7 kmh 29.95 in1014.2 mb 0.00 in0.0 mm 0.00 in0.0 mm 0.00 in0.0 mm
10:00 AM 38.8°F3.8°C 33.2°F0.7°C 80% 3.6 mph NW5.8 kmh NW 5.6 mph9.0 kmh 29.95 in1014.2 mb 0.00 in0.0 mm 0.00 in0.0 mm 0.00 in0.0 mm
10:15 AM 39.4°F4.1°C 34.0°F1.1°C 81% 3.2 mph NW5.1 kmh NW 6.0 mph9.7 kmh 29.95 in1014.2 mb 0.00 in0.0 mm 0.00 in0.0 mm 0.00 in0.0 mm
10:30 AM 40.1°F4.5°C 34.7°F1.5°C 81% 4.1 mph NW6.6 kmh NW 6.5 mph10.5 kmh 29.95 in1014.2 mb 0.00 in0.0 mm 0.00 in0.0 mm 0.00 in0.0 mm
10:45 AM 40.1°F4.5°C 33.5°F0.8°C 77% 5.3 mph NW8.5 kmh NW 9.2 mph14.8 kmh 29.95 in1014.2 mb 0.00 in0.0 mm 0.00 in0.0 mm 0.00 in0.0 mm
11:00 AM 40.8°F4.9°C 33.5°F0.8°C 75% 4.5 mph WNW7.2 kmh WNW 8.5 mph13.7 kmh 29.92 in1013.2 mb 0.00 in0.0 mm 0.00 in0.0 mm 0.00 in0.0 mm
11:15 AM 41.5°F5.3°C 33.2°F0.7°C 72% 5.3 mph WNW8.5 kmh WNW 9.8 mph15.8 kmh 29.95 in1014.2 mb 0.00 in0.0 mm 0.00 in0.0 mm 0.00 in0.0 mm
11:30 AM 41.9°F5.5°C 29.8°F-1.2°C 62% 7.2 mph NW11.6 kmh NW 11.9 mph19.2 kmh 29.95 in1014.2 mb 0.00 in0.0 mm 0.00 in0.0 mm 0.00 in0.0 mm
11:45 AM 39.6°F4.2°C 26.8°F-2.9°C 60% 9.2 mph N14.8 kmh N 21.9 mph35.2 kmh 29.95 in1014.2 mb 0.00 in0.0 mm 0.00 in0.0 mm 0.00 in0.0 mm
12:00 PM 39.7°F4.3°C 30.8°F-0.7°C 70% 5.6 mph NW9.0 kmh NW 10.7 mph17.2 kmh 29.98 in1015.2 mb 0.00 in0.0 mm 0.00 in0.0 mm 0.00 in0.0 mm
12:15 PM 40.1°F4.5°C 30.7°F-0.7°C 69% 7.3 mph NW11.7 kmh NW 12.8 mph20.6 kmh 29.98 in1015.2 mb 0.00 in0.0 mm 0.00 in0.0 mm 0.00 in0.0 mm
12:30 PM 40.3°F4.6°C 31.3°F-0.4°C 70% 5.1 mph NNW8.2 kmh NNW 10.7 mph17.2 kmh 29.98 in1015.2 mb 0.00 in0.0 mm 0.00 in0.0 mm 0.00 in0.0 mm
12:45 PM 40.8°F4.9°C 31.8°F-0.1°C 70% 4.8 mph NW7.7 kmh NW 10.5 mph16.9 kmh 29.98 in1015.2 mb 0.00 in0.0 mm 0.00 in0.0 mm 0.00 in0.0 mm
01:00 PM 41.4°F5.2°C 29.3°F-1.5°C 62% 6.3 mph NW10.1 kmh NW 12.8 mph20.6 kmh 29.98 in1015.2 mb 0.00 in0.0 mm 0.00 in0.0 mm 0.00 in0.0 mm
01:15 PM 41.5°F5.3°C 27.4°F-2.6°C 57% 6.6 mph NW10.6 kmh NW 15.4 mph24.8 kmh 30.01 in1016.3 mb 0.00 in0.0 mm 0.00 in0.0 mm 0.00 in0.0 mm
01:30 PM 40.8°F4.9°C 24.5°F-4.2°C 52% 5.7 mph NW9.2 kmh NW 8.7 mph14.0 kmh 30.01 in1016.3 mb 0.00 in0.0 mm 0.00 in0.0 mm 0.00 in0.0 mm
01:45 PM 41.0°F5.0°C 25.6°F-3.6°C 54% 7.1 mph NW11.4 kmh NW 12.8 mph20.6 kmh 30.01 in1016.3 mb 0.00 in0.0 mm 0.00 in0.0 mm 0.00 in0.0 mm
02:00 PM 41.5°F5.3°C 24.3°F-4.3°C 50% 9.1 mph NW14.6 kmh NW 19.5 mph31.4 kmh 30.01 in1016.3 mb 0.00 in0.0 mm 0.00 in0.0 mm 0.00 in0.0 mm
02:15 PM 39.4°F4.1°C 23.7°F-4.6°C 53% 6.1 mph N9.8 kmh N 10.1 mph16.3 kmh 30.01 in1016.3 mb 0.00 in0.0 mm 0.00 in0.0 mm 0.00 in0.0 mm
02:30 PM 39.6°F4.2°C 25.6°F-3.6°C 57% 5.4 mph NW8.7 kmh NW 9.8 mph15.8 kmh 30.01 in1016.3 mb 0.00 in0.0 mm 0.00 in0.0 mm 0.00 in0.0 mm
02:45 PM 39.7°F4.3°C 27.0°F-2.8°C 60% 5.6 mph NW9.0 kmh NW 9.6 mph15.4 kmh 30.01 in1016.3 mb 0.00 in0.0 mm 0.00 in0.0 mm 0.00 in0.0 mm
03:00 PM 40.3°F4.6°C 25.8°F-3.4°C 56% 5.9 mph NW9.5 kmh NW 13.2 mph21.2 kmh 30.01 in1016.3 mb 0.00 in0.0 mm 0.00 in0.0 mm 0.00 in0.0 mm
03:15 PM 41.0°F5.0°C 25.2°F-3.8°C 53% 9.2 mph NW14.8 kmh NW 15.4 mph24.8 kmh 30.01 in1016.3 mb 0.00 in0.0 mm 0.00 in0.0 mm 0.00 in0.0 mm
03:30 PM 39.4°F4.1°C 25.8°F-3.4°C 58% 5.3 mph NNW8.5 kmh NNW 11.9 mph19.2 kmh 30.04 in1017.3 mb 0.00 in0.0 mm 0.00 in0.0 mm 0.00 in0.0 mm
03:45 PM 38.8°F3.8°C 26.5°F-3.1°C 61% 6.9 mph NW11.1 kmh NW 13.2 mph21.2 kmh 30.01 in1016.3 mb 0.00 in0.0 mm 0.00 in0.0 mm 0.00 in0.0 mm
04:00 PM 39.0°F3.9°C 25.5°F-3.6°C 58% 6.6 mph NW10.6 kmh NW 10.3 mph16.6 kmh 30.01 in1016.3 mb 0.00 in0.0 mm 0.00 in0.0 mm 0.00 in0.0 mm
04:15 PM 39.2°F4.0°C 24.8°F-4.0°C 56% 6.4 mph NW10.3 kmh NW 13.0 mph20.9 kmh 30.01 in1016.3 mb 0.00 in0.0 mm 0.00 in0.0 mm 0.00 in0.0 mm
04:30 PM 39.2°F4.0°C 24.8°F-4.0°C 56% 5.1 mph WNW8.2 kmh WNW 10.7 mph17.2 kmh 30.04 in1017.3 mb 0.00 in0.0 mm 0.00 in0.0 mm 0.00 in0.0 mm
04:45 PM 39.2°F4.0°C 25.2°F-3.8°C 57% 6.5 mph NW10.5 kmh NW 9.6 mph15.4 kmh 30.04 in1017.3 mb 0.00 in0.0 mm 0.00 in0.0 mm 0.00 in0.0 mm
05:00 PM 39.2°F4.0°C 25.2°F-3.8°C 57% 6.4 mph NW10.3 kmh NW 12.5 mph20.1 kmh 30.07 in1018.3 mb 0.00 in0.0 mm 0.00 in0.0 mm 0.00 in0.0 mm
05:15 PM 39.6°F4.2°C 23.8°F-4.6°C 53% 6.9 mph NW11.1 kmh NW 12.1 mph19.5 kmh 30.07 in1018.3 mb 0.00 in0.0 mm 0.00 in0.0 mm 0.00 in0.0 mm
05:30 PM 39.2°F4.0°C 23.5°F-4.7°C 53% 5.6 mph NW9.0 kmh NW 10.3 mph16.6 kmh 30.07 in1018.3 mb 0.00 in0.0 mm 0.00 in0.0 mm 0.00 in0.0 mm
05:45 PM 39.2°F4.0°C 23.5°F-4.7°C 53% 5.2 mph NW8.4 kmh NW 10.1 mph16.3 kmh 30.07 in1018.3 mb 0.00 in0.0 mm 0.00 in0.0 mm 0.00 in0.0 mm
06:00 PM 39.2°F4.0°C 24.4°F-4.2°C 55% 3.4 mph NW5.5 kmh NW 7.2 mph11.6 kmh 30.07 in1018.3 mb 0.00 in0.0 mm 0.00 in0.0 mm 0.00 in0.0 mm
06:15 PM 39.2°F4.0°C 24.8°F-4.0°C 56% 3.9 mph W6.3 kmh W 7.6 mph12.2 kmh 30.07 in1018.3 mb 0.00 in0.0 mm 0.00 in0.0 mm 0.00 in0.0 mm
06:30 PM 39.2°F4.0°C 25.2°F-3.8°C 57% 4.6 mph W7.4 kmh W 8.1 mph13.0 kmh 30.07 in1018.3 mb 0.00 in0.0 mm 0.00 in0.0 mm 0.00 in0.0 mm
06:45 PM 39.2°F4.0°C 23.9°F-4.5°C 54% 5.8 mph WNW9.3 kmh WNW 8.7 mph14.0 kmh 30.07 in1018.3 mb 0.00 in0.0 mm 0.00 in0.0 mm 0.00 in0.0 mm
07:00 PM 39.4°F4.1°C 23.2°F-4.9°C 52% 7.5 mph WNW12.1 kmh WNW 15.4 mph24.8 kmh 30.07 in1018.3 mb 0.00 in0.0 mm 0.00 in0.0 mm 0.00 in0.0 mm
07:15 PM 38.7°F3.7°C 24.3°F-4.3°C 56% 6.2 mph W10.0 kmh W 11.0 mph17.7 kmh 30.07 in1018.3 mb 0.00 in0.0 mm 0.00 in0.0 mm 0.00 in0.0 mm
07:30 PM 37.9°F3.3°C 25.3°F-3.7°C 60% 4.1 mph W6.6 kmh W 7.6 mph12.2 kmh 30.07 in1018.3 mb 0.00 in0.0 mm 0.00 in0.0 mm 0.00 in0.0 mm
07:45 PM 37.4°F3.0°C 25.2°F-3.8°C 61% 3.3 mph WSW5.3 kmh WSW 5.8 mph9.3 kmh 30.09 in1019.0 mb 0.00 in0.0 mm 0.00 in0.0 mm 0.00 in0.0 mm
08:00 PM 37.0°F2.8°C 25.2°F-3.8°C 62% 3.0 mph WSW4.8 kmh WSW 7.6 mph12.2 kmh 30.09 in1019.0 mb 0.00 in0.0 mm 0.00 in0.0 mm 0.00 in0.0 mm
08:15 PM 37.4°F3.0°C 26.7°F-2.9°C 65% 4.0 mph WNW6.4 kmh WNW 6.5 mph10.5 kmh 30.09 in1019.0 mb 0.00 in0.0 mm 0.00 in0.0 mm 0.00 in0.0 mm
08:30 PM 37.6°F3.1°C 26.1°F-3.3°C 63% 3.9 mph WSW6.3 kmh WSW 6.9 mph11.1 kmh 30.09 in1019.0 mb 0.00 in0.0 mm 0.00 in0.0 mm 0.00 in0.0 mm
08:45 PM 36.9°F2.7°C 25.0°F-3.9°C 62% 2.9 mph SW4.7 kmh SW 4.7 mph7.6 kmh 30.09 in1019.0 mb 0.00 in0.0 mm 0.00 in0.0 mm 0.00 in0.0 mm
09:00 PM 36.1°F2.3°C 24.7°F-4.1°C 63% 2.6 mph SW4.2 kmh SW 5.8 mph9.3 kmh 30.09 in1019.0 mb 0.00 in0.0 mm 0.00 in0.0 mm 0.00 in0.0 mm
09:15 PM 35.4°F1.9°C 24.1°F-4.4°C 63% 2.5 mph SSW4.0 kmh SSW 3.6 mph5.8 kmh 30.09 in1019.0 mb 0.00 in0.0 mm 0.00 in0.0 mm 0.00 in0.0 mm
09:30 PM 34.9°F1.6°C 23.9°F-4.5°C 64% 2.7 mph SW4.3 kmh SW 3.8 mph6.1 kmh 30.09 in1019.0 mb 0.00 in0.0 mm 0.00 in0.0 mm 0.00 in0.0 mm
09:45 PM 34.5°F1.4°C 24.3°F-4.3°C 66% 2.5 mph WSW4.0 kmh WSW 4.3 mph6.9 kmh 30.12 in1020.0 mb 0.00 in0.0 mm 0.00 in0.0 mm 0.00 in0.0 mm
10:00 PM 34.3°F1.3°C 25.9°F-3.4°C 71% 1.7 mph SSW2.7 kmh SSW 2.7 mph4.3 kmh 30.09 in1019.0 mb 0.00 in0.0 mm 0.00 in0.0 mm 0.00 in0.0 mm
10:15 PM 33.6°F0.9°C 24.9°F-3.9°C 70% 2.6 mph SSW4.2 kmh SSW 3.8 mph6.1 kmh 30.12 in1020.0 mb 0.00 in0.0 mm 0.00 in0.0 mm 0.00 in0.0 mm
10:30 PM 33.6°F0.9°C 25.2°F-3.8°C 71% 2.6 mph SW4.2 kmh SW 3.8 mph6.1 kmh 30.09 in1019.0 mb 0.00 in0.0 mm 0.00 in0.0 mm 0.00 in0.0 mm
10:45 PM 33.6°F0.9°C 25.2°F-3.8°C 71% 2.6 mph SSW4.2 kmh SSW 3.6 mph5.8 kmh 30.12 in1020.0 mb 0.00 in0.0 mm 0.00 in0.0 mm 0.00 in0.0 mm
11:00 PM 33.6°F0.9°C 25.6°F-3.6°C 72% 2.5 mph SW4.0 kmh SW 3.6 mph5.8 kmh 30.12 in1020.0 mb 0.00 in0.0 mm 0.00 in0.0 mm 0.00 in0.0 mm
11:15 PM 33.3°F0.7°C 25.5°F-3.6°C 73% 2.4 mph WSW3.9 kmh WSW 3.8 mph6.1 kmh 30.12 in1020.0 mb 0.00 in0.0 mm 0.00 in0.0 mm 0.00 in0.0 mm
11:30 PM 33.1°F0.6°C 26.3°F-3.2°C 76% 1.8 mph SSW2.9 kmh SSW 3.4 mph5.5 kmh 30.12 in1020.0 mb 0.00 in0.0 mm 0.00 in0.0 mm 0.00 in0.0 mm
11:45 PM 32.5°F0.3°C 26.1°F-3.3°C 77% 1.5 mph SSW2.4 kmh SSW 2.7 mph4.3 kmh 30.12 in1020.0 mb 0.00 in0.0 mm 0.00 in0.0 mm 0.00 in0.0 mm